Time;durP1;ratioP1;P1;durP2;ratioP2;P2;SDS_P1;SDS_P2;PMS_P1;PMS_P2;Temp;Humidity;BMP_temperature;BMP_pressure;BME280_temperature;BME280_humidity;BME280_pressure;Samples;Min_cycle;Max_cycle;Signal;HPM_P1;HPM_P2
2024/01/13 00:01:59;;;;;;;14.53;7.20;;;;;;;2.60;100.00;102762.94;5044969;28;20098;-84
2024/01/13 00:04:24;;;;;;;12.60;6.27;;;;;;;2.65;100.00;102766.13;5096409;28;20032;-84
2024/01/13 00:06:50;;;;;;;14.18;7.25;;;;;;;2.65;100.00;102759.91;5096253;28;20032;-85
2024/01/13 00:09:15;;;;;;;13.55;6.53;;;;;;;2.62;100.00;102759.16;5095980;28;20490;-85
2024/01/13 00:11:40;;;;;;;10.00;5.63;;;;;;;2.69;100.00;102758.69;5078427;28;20035;-84
2024/01/13 00:14:06;;;;;;;14.87;6.53;;;;;;;2.69;100.00;102745.28;5061352;28;20388;-85
2024/01/13 00:16:31;;;;;;;15.07;6.67;;;;;;;2.68;100.00;102746.28;5077908;28;20036;-85
2024/01/13 00:18:56;;;;;;;14.83;6.53;;;;;;;2.69;100.00;102734.56;5061477;28;20028;-84
2024/01/13 00:21:25;;;;;;;13.57;6.50;;;;;;;2.72;100.00;102739.72;5078134;28;20036;-84
2024/01/13 00:23:50;;;;;;;15.35;7.20;;;;;;;2.72;100.00;102729.84;5045219;28;20024;-84
2024/01/13 00:26:15;;;;;;;11.57;6.53;;;;;;;2.72;100.00;102732.50;5077809;28;20028;-84
2024/01/13 00:28:41;;;;;;;18.70;7.50;;;;;;;2.73;100.00;102736.03;5078330;28;20384;-84
2024/01/13 00:31:06;;;;;;;10.13;5.38;;;;;;;2.73;100.00;102731.56;5060862;28;20298;-84
2024/01/13 00:33:32;;;;;;;12.23;6.27;;;;;;;2.71;100.00;102724.59;5077785;28;20391;-84
2024/01/13 00:35:58;;;;;;;9.27;5.83;;;;;;;2.70;100.00;102723.75;5077315;28;20110;-84
2024/01/13 00:38:23;;;;;;;11.50;6.35;;;;;;;2.71;100.00;102725.44;5077495;28;20054;-84
2024/01/13 00:40:49;;;;;;;11.00;5.47;;;;;;;2.69;100.00;102723.84;5060658;28;20039;-85
2024/01/13 00:43:14;;;;;;;10.33;5.40;;;;;;;2.71;100.00;102724.59;5077663;28;20059;-84
2024/01/13 00:45:39;;;;;;;11.98;5.85;;;;;;;2.70;100.00;102710.34;5077788;28;20300;-85
2024/01/13 00:48:05;;;;;;;11.80;6.50;;;;;;;2.69;100.00;102705.94;5077432;28;20028;-85
2024/01/13 00:50:32;;;;;;;14.13;6.13;;;;;;;2.67;100.00;102707.03;5059174;28;20028;-85
2024/01/13 00:52:58;;;;;;;13.27;6.40;;;;;;;2.66;100.00;102702.63;5060871;28;20040;-85
2024/01/13 00:55:23;;;;;;;11.07;6.37;;;;;;;2.66;100.00;102700.81;5044020;28;20494;-84
2024/01/13 00:57:49;;;;;;;11.50;5.70;;;;;;;2.66;100.00;102700.81;5095308;28;20032;-84
2024/01/13 01:00:14;;;;;;;8.50;4.93;;;;;;;2.67;100.00;102699.00;5060520;28;20050;-85
2024/01/13 01:02:40;;;;;;;10.68;5.60;;;;;;;2.67;100.00;102702.50;5077090;28;20285;-85
2024/01/13 01:05:05;;;;;;;7.77;5.00;;;;;;;2.68;100.00;102698.03;5060689;28;20380;-85
2024/01/13 01:07:32;;;;;;;14.70;6.30;;;;;;;2.69;100.00;102695.22;5077391;28;20038;-84
2024/01/13 01:09:58;;;;;;;9.57;5.33;;;;;;;2.71;100.00;102695.09;5060035;28;20037;-84
2024/01/13 01:12:23;;;;;;;11.68;5.80;;;;;;;2.71;100.00;102690.59;5076819;28;20039;-84
2024/01/13 01:14:48;;;;;;;7.63;4.40;;;;;;;2.70;100.00;102688.91;5077172;28;20028;-85
2024/01/13 01:17:14;;;;;;;11.83;5.03;;;;;;;2.72;100.00;102689.63;5076582;28;20047;-85
2024/01/13 01:19:39;;;;;;;9.07;4.23;;;;;;;2.73;100.00;102685.97;5043701;28;20479;-84
2024/01/13 01:22:05;;;;;;;13.38;6.10;;;;;;;2.77;100.00;102691.94;5059736;28;20294;-85
2024/01/13 01:24:31;;;;;;;12.83;6.60;;;;;;;2.75;100.00;102683.19;5043950;28;20456;-84
2024/01/13 01:26:56;;;;;;;13.88;6.60;;;;;;;2.73;100.00;102674.38;5076487;28;20278;-85
2024/01/13 01:29:22;;;;;;;10.60;6.17;;;;;;;2.69;100.00;102673.78;5076310;28;20377;-84
2024/01/13 01:31:47;;;;;;;11.70;6.43;;;;;;;2.67;100.00;102672.19;5094733;28;20056;-84
2024/01/13 01:34:12;;;;;;;12.23;7.27;;;;;;;2.65;100.00;102669.63;5060042;28;20043;-84
2024/01/13 01:36:38;;;;;;;12.83;6.97;;;;;;;2.62;100.00;102668.03;5060274;28;20052;-84
2024/01/13 01:39:03;;;;;;;10.68;6.28;;;;;;;2.62;100.00;102661.81;5059724;28;20758;-84
2024/01/13 01:41:28;;;;;;;13.43;6.83;;;;;;;2.61;100.00;102663.66;5059756;28;20073;-85
2024/01/13 01:43:54;;;;;;;12.47;7.33;;;;;;;2.60;100.00;102658.41;5076223;28;20035;-84
2024/01/13 01:46:22;;;;;;;12.07;6.70;;;;;;;2.58;100.00;102652.31;5059677;28;20047;-84
2024/01/13 01:49:02;;;;;;;15.35;7.90;;;;;;;2.55;100.00;102657.91;5094588;28;20063;-93
2024/01/13 01:51:32;;;;;;;18.45;7.50;;;;;;;2.52;100.00;102661.66;5077561;28;20456;-93
2024/01/13 01:54:11;;;;;;;13.38;7.93;;;;;;;2.53;100.00;102659.88;5060740;28;20028;-93
2024/01/13 01:56:43;;;;;;;9.60;4.78;;;;;;;2.54;100.00;102654.38;5046342;28;20036;-93
2024/01/13 01:59:11;;;;;;;14.52;7.82;;;;;;;2.55;100.00;102652.53;5077480;28;20031;-94
2024/01/13 02:02:00;;;;;;;10.25;6.30;;;;;;;2.58;100.00;102645.13;5076609;28;20028;-94
2024/01/13 02:04:28;;;;;;;10.88;6.25;;;;;;;2.62;100.00;102643.91;5078764;28;20085;-93
2024/01/13 02:07:02;;;;;;;13.23;7.95;;;;;;;2.67;100.00;102648.91;5082940;28;20036;-93
2024/01/13 02:09:37;;;;;;;12.45;7.15;;;;;;;2.69;100.00;102643.44;5079803;28;20028;-95
2024/01/13 02:12:05;;;;;;;15.77;9.07;;;;;;;2.68;100.00;102645.25;5077300;28;20036;-94
2024/01/13 02:14:35;;;;;;;14.70;8.13;;;;;;;2.70;100.00;102648.69;5076868;28;20093;-93
2024/01/13 02:17:06;;;;;;;14.05;8.05;;;;;;;2.69;100.00;102630.03;5077263;28;20039;-94
2024/01/13 02:19:32;;;;;;;12.27;7.13;;;;;;;2.67;100.00;102623.94;5077242;28;20032;-92
2024/01/13 02:22:05;;;;;;;15.45;8.50;;;;;;;2.67;100.00;102626.63;5077033;28;20293;-92
2024/01/13 02:24:43;;;;;;;15.82;8.38;;;;;;;2.63;100.00;102610.78;5060806;28;20028;-92
2024/01/13 02:27:14;;;;;;;13.02;7.93;;;;;;;2.60;100.00;102615.53;5076908;28;20032;-93
2024/01/13 02:29:52;;;;;;;17.60;8.38;;;;;;;2.59;100.00;102606.63;5061057;28;20024;-92
2024/01/13 02:32:30;;;;;;;15.63;8.43;;;;;;;2.58;100.00;102604.94;5061546;28;20056;-92
2024/01/13 02:34:58;;;;;;;20.50;9.18;;;;;;;2.61;100.00;102603.81;5077645;28;20062;-93
2024/01/13 02:37:31;;;;;;;15.95;8.30;;;;;;;2.56;100.00;102598.84;5076730;28;20055;-93
2024/01/13 02:39:56;;;;;;;15.68;8.30;;;;;;;2.58;100.00;102593.34;5044421;28;20064;-93
2024/01/13 02:42:25;;;;;;;11.97;7.60;;;;;;;2.57;100.00;102592.50;5076112;28;20070;-93
2024/01/13 02:44:51;;;;;;;17.08;8.80;;;;;;;2.57;100.00;102597.88;5060249;28;20030;-93
2024/01/13 02:47:19;;;;;;;13.05;8.75;;;;;;;2.59;100.00;102605.78;5076816;28;20119;-92
2024/01/13 02:50:02;;;;;;;16.58;8.88;;;;;;;2.55;100.00;102594.44;5076735;28;20067;-93
2024/01/13 02:52:33;;;;;;;13.07;8.20;;;;;;;2.52;100.00;102592.00;5077251;28;20118;-94
2024/01/13 02:55:01;;;;;;;17.75;9.20;;;;;;;2.55;100.00;102593.59;5075792;28;20044;-93
2024/01/13 02:57:30;;;;;;;14.45;8.55;;;;;;;2.55;100.00;102589.06;5076300;28;20031;-94
2024/01/13 02:59:55;;;;;;;15.85;9.35;;;;;;;2.49;100.00;102578.84;5077323;28;20029;-93
2024/01/13 03:02:32;;;;;;;12.77;8.77;;;;;;;2.46;100.00;102573.72;5076480;28;20375;-93
2024/01/13 03:05:05;;;;;;;16.30;8.63;;;;;;;2.44;100.00;102573.00;5077805;28;20028;-93
2024/01/13 03:07:36;;;;;;;12.20;8.00;;;;;;;2.44;100.00;102573.00;5061733;28;20060;-93
2024/01/13 03:10:04;;;;;;;14.35;9.15;;;;;;;2.40;100.00;102568.84;5077273;28;20046;-93
2024/01/13 03:12:42;;;;;;;18.40;8.57;;;;;;;2.40;100.00;102566.16;5077612;28;20035;-93
2024/01/13 03:15:13;;;;;;;13.98;8.63;;;;;;;2.39;100.00;102559.97;5066002;28;20039;-93
2024/01/13 03:17:39;;;;;;;12.50;8.23;;;;;;;2.37;100.00;102559.22;5067301;28;20039;-93
2024/01/13 03:20:11;;;;;;;18.70;8.13;;;;;;;2.36;100.00;102556.66;5086058;28;20375;-93
2024/01/13 03:22:49;;;;;;;;;;;;;;;;;;;;;
2024/01/13 03:25:18;;;;;;;11.75;7.00;;;;;;;2.37;100.00;102537.78;5085922;28;20034;-95
2024/01/13 03:27:44;;;;;;;9.88;6.75;;;;;;;2.37;100.00;102526.22;5065590;28;20123;-95
2024/01/13 03:30:10;;;;;;;11.23;6.53;;;;;;;2.34;100.00;102518.44;5079746;28;20079;-94
2024/01/13 03:32:35;;;;;;;8.38;5.70;;;;;;;2.35;100.00;102525.47;5081443;28;20483;-94
2024/01/13 03:35:11;;;;;;;10.88;5.72;;;;;;;2.34;100.00;102516.59;5081949;28;20038;-94
2024/01/13 03:37:45;;;;;;;10.48;5.72;;;;;;;2.31;100.00;102506.13;5082553;28;20032;-95
2024/01/13 03:40:15;;;;;;;7.10;4.88;;;;;;;2.34;100.00;102513.91;5066811;28;20040;-94
2024/01/13 03:42:45;;;;;;;7.60;5.00;;;;;;;2.33;100.00;102503.31;5083533;28;20035;-95
2024/01/13 03:45:13;;;;;;;7.43;3.92;;;;;;;2.33;100.00;102509.53;5084104;28;20047;-94
2024/01/13 03:47:43;;;;;;;5.63;4.25;;;;;;;2.36;100.00;102512.00;5072378;28;20074;-94
2024/01/13 03:50:08;;;;;;;9.10;3.88;;;;;;;2.36;100.00;102495.03;5102201;28;20119;-94
2024/01/13 03:52:34;;;;;;;6.25;4.35;;;;;;;2.36;100.00;102493.25;5095420;28;20036;-92
2024/01/13 03:55:03;;;;;;;6.45;3.65;;;;;;;2.35;100.00;102498.69;5083395;28;20039;-92
2024/01/13 03:57:31;;;;;;;5.63;3.57;;;;;;;2.38;100.00;102499.31;5084619;28;20046;-92
2024/01/13 03:59:57;;;;;;;6.43;3.88;;;;;;;2.37;100.00;102496.75;5068982;28;20294;-91
2024/01/13 04:02:27;;;;;;;5.97;3.80;;;;;;;2.38;100.00;102487.75;5085356;28;20337;-92
2024/01/13 04:04:59;;;;;;;5.30;3.95;;;;;;;2.36;100.00;102492.38;5085123;28;20062;-93
2024/01/13 04:07:33;;;;;;;7.25;3.88;;;;;;;2.36;100.00;102492.38;5069914;28;20040;-92
2024/01/13 04:10:02;;;;;;;7.10;3.95;;;;;;;2.32;100.00;102485.53;5088126;28;20047;-92
2024/01/13 04:12:30;;;;;;;7.05;4.05;;;;;;;2.29;100.00;102497.38;5102315;28;20034;-94
2024/01/13 04:15:00;;;;;;;6.97;4.20;;;;;;;2.24;100.00;102486.16;5101780;28;20024;-93
2024/01/13 04:17:26;;;;;;;8.20;4.17;;;;;;;2.18;100.00;102481.28;5082825;28;20050;-93
2024/01/13 04:19:52;;;;;;;7.65;4.05;;;;;;;2.13;100.00;102472.75;5096179;28;20282;-92
2024/01/13 04:22:38;;;;;;;6.05;3.90;;;;;;;2.14;100.00;102469.97;5085844;28;20487;-93
2024/01/13 04:25:09;;;;;;;5.65;3.90;;;;;;;2.12;100.00;102461.19;5080290;28;20392;-93
2024/01/13 04:27:52;;;;;;;;;;;;;;;;;;;;;
2024/01/13 04:30:21;;;;;;;9.02;3.65;;;;;;;2.04;100.00;102466.31;5066157;28;20040;-92
2024/01/13 04:32:52;;;;;;;5.80;3.85;;;;;;;2.00;100.00;102463.00;5080043;28;20052;-92
2024/01/13 04:35:27;;;;;;;6.28;3.85;;;;;;;2.00;100.00;102456.81;5079629;28;20032;-93
2024/01/13 04:37:56;;;;;;;5.93;3.92;;;;;;;1.99;100.00;102447.91;5080672;28;20040;-93
2024/01/13 04:40:33;;;;;;;8.48;4.05;;;;;;;1.99;100.00;102455.94;5079709;28;20036;-93
2024/01/13 04:43:02;;;;;;;7.80;4.00;;;;;;;2.01;100.00;102459.34;5063850;28;20028;-93
2024/01/13 04:45:28;;;;;;;6.57;3.85;;;;;;;2.03;100.00;102454.72;5079425;28;20131;-93
2024/01/13 04:48:01;;;;;;;7.53;3.83;;;;;;;2.03;100.00;102460.06;5079657;28;20516;-93
2024/01/13 04:50:30;;;;;;;8.52;4.28;;;;;;;2.01;100.00;102455.81;5079977;28;20045;-94
2024/01/13 04:53:03;;;;;;;6.65;4.25;;;;;;;2.01;100.00;102453.13;5078953;28;20090;-93
2024/01/13 04:55:36;;;;;;;10.55;4.80;;;;;;;2.00;100.00;102451.44;5079594;28;20039;-92
2024/01/13 04:58:21;;;;;;;7.40;4.88;;;;;;;1.97;100.00;102452.53;5079964;28;20074;-93
2024/01/13 05:00:47;;;;;;;9.80;5.07;;;;;;;1.99;100.00;102449.72;5079850;28;20036;-93
2024/01/13 05:03:15;;;;;;;7.70;4.82;;;;;;;1.93;100.00;102437.66;5078366;28;20297;-94
2024/01/13 05:05:50;;;;;;;11.30;4.78;;;;;;;1.96;100.00;102444.63;5078972;28;20453;-94
2024/01/13 05:08:32;;;;;;;13.07;6.35;;;;;;;1.96;100.00;102441.94;5078744;28;20028;-94
2024/01/13 05:11:05;;;;;;;10.73;6.30;;;;;;;1.92;100.00;102447.53;5079005;28;20031;-94
2024/01/13 05:13:36;;;;;;;10.95;6.55;;;;;;;1.90;100.00;102446.78;5062151;28;20028;-93
2024/01/13 05:16:13;;;;;;;10.68;6.65;;;;;;;1.91;100.00;102444.97;5062458;28;20032;-93
2024/01/13 05:18:44;;;;;;;13.75;7.53;;;;;;;1.93;100.00;102437.66;5077539;28;20032;-93
2024/01/13 05:21:13;;;;;;;13.57;7.05;;;;;;;1.91;100.00;102437.78;5078255;28;20449;-94
2024/01/13 05:23:41;;;;;;;15.13;8.43;;;;;;;1.89;100.00;102437.06;5078123;28;20081;-94
2024/01/13 05:26:15;;;;;;;12.88;7.45;;;;;;;1.90;100.00;102441.44;5061043;28;20456;-92
2024/01/13 05:29:03;;;;;;;17.13;9.40;;;;;;;1.89;100.00;102441.56;5062280;28;20531;-94
2024/01/13 05:31:32;;;;;;;16.10;9.88;;;;;;;1.86;100.00;102434.63;5077509;28;20193;-94
2024/01/13 05:34:49;;;;;;;;;;;;;;;;;;;;;
2024/01/13 05:37:39;;;;;;;16.77;10.20;;;;;;;1.89;100.00;102436.19;5095776;28;20038;-95
2024/01/13 05:40:33;;;;;;;19.73;11.05;;;;;;;1.89;100.00;102436.19;5048960;28;20127;-94
2024/01/13 05:43:04;;;;;;;20.00;11.60;;;;;;;1.86;100.00;102426.59;5069745;28;20093;-93
2024/01/13 05:46:08;;;;;;;22.25;11.23;;;;;;;1.85;100.00;102434.75;5077180;28;20032;-94
2024/01/13 05:55:22;;;;;;;23.17;12.80;;;;;;;1.80;100.00;102432.44;5014525;28;20044;-92
2024/01/13 05:58:08;;;;;;;;;;;;;;;;;;;;;
2024/01/13 06:00:39;;;;;;;25.60;13.82;;;;;;;1.78;100.00;102431.69;5079089;28;20035;-94
2024/01/13 06:03:25;;;;;;;25.40;14.05;;;;;;;1.79;100.00;102436.06;5077503;28;20032;-94
2024/01/13 06:06:10;;;;;;;24.63;14.40;;;;;;;1.79;100.00;102446.78;5077442;28;20460;-93
2024/01/13 06:08:40;;;;;;;21.33;11.77;;;;;;;1.82;100.00;102443.88;5076960;28;20030;-93
2024/01/13 06:11:09;;;;;;;27.67;15.32;;;;;;;1.86;100.00;102450.69;5061349;28;20472;-93
2024/01/13 06:14:01;;;;;;;;;;;;;;;;;;;;;
2024/01/13 06:16:56;;;;;;;;;;;;;;;;;;;;;
2024/01/13 06:19:22;;;;;;;26.67;15.00;;;;;;;1.90;100.00;102437.91;5079752;28;20040;-94
2024/01/13 06:21:57;;;;;;;;;;;;;;;;;;;;;
2024/01/13 06:24:53;;;;;;;28.35;15.65;;;;;;;1.91;100.00;102428.91;5095205;28;20032;-94
2024/01/13 06:27:23;;;;;;;36.13;16.15;;;;;;;1.90;100.00;102413.81;5077348;28;20039;-93
2024/01/13 06:32:43;;;;;;;32.13;17.27;;;;;;;1.85;100.00;102398.13;5079230;28;20114;-93
2024/01/13 06:35:09;;;;;;;33.03;16.15;;;;;;;1.85;100.00;102392.78;5077154;28;20041;-93
2024/01/13 06:37:37;;;;;;;35.55;16.50;;;;;;;1.87;100.00;102387.28;5076644;28;20101;-93
2024/01/13 06:40:28;;;;;;;;;;;;;;;;;;;;;
2024/01/13 06:43:16;;;;;;;;;;;;;;;;;;;;;
2024/01/13 06:45:49;;;;;;;28.50;15.90;;;;;;;1.83;100.00;102389.38;5094991;28;20365;-92
2024/01/13 06:48:30;;;;;;;26.63;14.95;;;;;;;1.83;100.00;102388.50;5076819;28;20059;-94
2024/01/13 06:50:56;;;;;;;28.70;14.47;;;;;;;1.82;100.00;102387.66;5079549;28;20476;-93
2024/01/13 06:53:24;;;;;;;30.73;16.67;;;;;;;1.81;100.00;102391.31;5080233;28;20286;-91
2024/01/13 06:55:56;;;;;;;31.95;17.20;;;;;;;1.81;100.00;102396.66;5080483;28;20119;-92
2024/01/13 06:58:34;;;;;;;;;;;;;;;;;;;;;
2024/01/13 07:01:00;;;;;;;29.67;16.57;;;;;;;1.81;100.00;102371.72;5099040;28;20032;-90
2024/01/13 07:03:26;;;;;;;32.95;16.55;;;;;;;1.79;100.00;102347.75;5080053;28;20038;-90
2024/01/13 07:05:56;;;;;;;31.33;16.60;;;;;;;1.83;100.00;102365.28;5080296;28;20510;-90
2024/01/13 07:08:24;;;;;;;31.40;15.75;;;;;;;1.83;100.00;102353.72;5080185;28;20032;-91
2024/01/13 07:10:53;;;;;;;31.97;17.17;;;;;;;1.85;100.00;102343.75;5063770;28;20058;-92
2024/01/13 07:13:31;;;;;;;27.42;14.70;;;;;;;1.87;100.00;102341.78;5080470;28;20028;-93
2024/01/13 07:16:05;;;;;;;32.35;16.77;;;;;;;1.86;100.00;102332.06;5081002;28;20024;-92
2024/01/13 07:19:06;;;;;;;;;;;;;;;;;;;;;
2024/01/13 07:21:43;;;;;;;28.58;15.35;;;;;;;1.83;100.00;102318.91;5099007;28;20036;-92
2024/01/13 07:24:36;;;;;;;35.13;16.47;;;;;;;1.82;100.00;102331.44;5045278;28;20040;-92
2024/01/13 07:27:06;;;;;;;33.80;17.42;;;;;;;1.83;100.00;102321.59;5079417;28;20070;-92
2024/01/13 07:30:07;;;;;;;;;;;;;;;;;;;;;
2024/01/13 07:33:09;;;;;;;31.58;16.65;;;;;;;1.82;100.00;102304.69;5040014;28;20495;-93
2024/01/13 07:35:35;;;;;;;30.77;16.20;;;;;;;1.79;100.00;102302.25;5004214;28;20122;-92
2024/01/13 07:38:04;;;;;;;33.30;17.53;;;;;;;1.77;100.00;102298.84;5057710;28;20060;-92
2024/01/13 07:40:39;;;;;;;35.30;17.25;;;;;;;1.77;100.00;102298.00;5057231;28;20028;-92
2024/01/13 07:43:07;;;;;;;32.38;16.88;;;;;;;1.75;100.00;102312.34;5057522;28;20025;-91
2024/01/13 07:45:40;;;;;;;32.88;16.88;;;;;;;1.76;100.00;102323.91;5040076;28;20033;-91
2024/01/13 07:48:08;;;;;;;35.90;17.10;;;;;;;1.75;100.00;102300.78;5040331;28;20041;-93
2024/01/13 07:50:43;;;;;;;32.20;17.42;;;;;;;1.77;100.00;102298.84;5040446;28;20032;-92
2024/01/13 07:53:12;;;;;;;31.45;16.05;;;;;;;1.74;100.00;102291.06;5057281;28;20032;-92
2024/01/13 07:55:48;;;;;;;;;;;;;;;;;;;;;
2024/01/13 07:58:14;;;;;;;33.80;16.58;;;;;;;1.79;100.00;102274.63;5057578;28;20037;-92
2024/01/13 08:00:48;;;;;;;31.57;16.30;;;;;;;1.78;100.00;102268.44;5056148;28;20117;-90
2024/01/13 08:03:17;;;;;;;31.45;16.48;;;;;;;1.78;100.00;102263.06;5056751;28;20051;-91
2024/01/13 08:05:57;;;;;;;29.98;15.68;;;;;;;1.80;100.00;102270.97;5056047;28;20025;-92
2024/01/13 08:08:45;;;;;;;31.85;17.35;;;;;;;1.80;100.00;102287.91;5040539;28;20345;-92
2024/01/13 08:11:37;;;;;;;27.05;15.82;;;;;;;1.84;100.00;102284.00;5039959;28;20128;-94
2024/01/13 08:14:10;;;;;;;29.60;14.68;;;;;;;1.83;100.00;102262.72;5056065;28;20028;-92
2024/01/13 08:16:46;;;;;;;31.50;15.40;;;;;;;1.85;100.00;102253.59;5040225;28;20365;-92
2024/01/13 08:19:17;;;;;;;28.90;14.73;;;;;;;1.85;100.00;102256.25;5038906;28;20505;-92
2024/01/13 08:21:53;;;;;;;32.95;16.35;;;;;;;1.86;100.00;102260.66;5055183;28;20029;-92
2024/01/13 08:24:28;;;;;;;28.88;13.77;;;;;;;1.89;100.00;102275.59;5055886;28;20024;-92
2024/01/13 08:26:54;;;;;;;30.10;15.80;;;;;;;1.86;100.00;102241.91;5056337;28;20029;-92
2024/01/13 08:29:39;;;;;;;28.50;16.23;;;;;;;1.90;100.00;102234.47;5057214;28;20091;-93
2024/01/13 08:32:07;;;;;;;27.52;15.75;;;;;;;1.88;100.00;102225.72;5064197;28;20072;-92
2024/01/13 08:34:36;;;;;;;31.33;16.52;;;;;;;1.92;100.00;102246.78;5075887;28;20101;-92
2024/01/13 08:37:08;;;;;;;29.23;16.38;;;;;;;1.89;100.00;102244.34;5075250;28;20109;-95
2024/01/13 08:39:47;;;;;;;33.35;16.10;;;;;;;1.90;100.00;102231.81;5075141;28;20094;-92
2024/01/13 08:42:43;;;;;;;;;;;;;;;;;;;;;
2024/01/13 08:45:25;;;;;;;35.47;16.70;;;;;;;1.93;100.00;102234.22;5076667;28;20033;-93
2024/01/13 08:48:56;;;;;;;31.73;16.20;;;;;;;1.93;100.00;102240.44;5075378;28;20302;-93
2024/01/13 08:51:24;;;;;;;37.30;17.70;;;;;;;1.95;100.00;102247.47;4958841;28;20034;-93
2024/01/13 08:54:01;;;;;;;30.55;15.73;;;;;;;1.93;100.00;102259.19;5020840;28;20393;-93
2024/01/13 08:57:14;;;;;;;;;;;;;;;;;;;;;
2024/01/13 08:59:53;;;;;;;36.20;17.25;;;;;;;2.02;100.00;102260.28;5076065;28;20461;-93
2024/01/13 09:13:11;;;;;;;;;;;;;;;;;;;;;
2024/01/13 09:26:42;;;;;;;36.45;18.83;;;;;;;2.07;100.00;102247.34;5013651;28;20410;-93
2024/01/13 09:29:46;;;;;;;;;;;;;;;;;;;;;
2024/01/13 09:33:19;;;;;;;36.80;18.53;;;;;;;2.05;100.00;102243.09;5008869;28;20048;-91
2024/01/13 09:38:45;;;;;;;32.75;16.08;;;;;;;2.04;100.00;102244.09;5052534;28;20033;-93
2024/01/13 09:42:22;;;;;;;;;;;;;;;;;;;;;
2024/01/13 09:46:11;;;;;;;29.52;16.50;;;;;;;2.07;100.00;102244.66;5056055;28;20032;-93
2024/01/13 09:49:07;;;;;;;;;;;;;;;;;;;;;
2024/01/13 09:52:06;;;;;;;26.65;14.70;;;;;;;2.09;100.00;102233.84;5055149;28;20035;-93
2024/01/13 09:55:09;;;;;;;25.05;13.90;;;;;;;2.14;100.00;102230.78;5053973;28;20035;-94
2024/01/13 10:01:24;;;;;;;;;;;;;;;;;;;;;
2024/01/13 10:04:26;;;;;;;;;;;;;;;;;;;;;
2024/01/13 10:10:28;;;;;;;28.17;16.17;;;;;;;2.19;100.00;102228.59;5054283;28;20079;-93
2024/01/13 10:13:27;;;;;;;;;;;;;;;;;;;;;
2024/01/13 10:16:26;;;;;;;;;;;;;;;;;;;;;
2024/01/13 10:19:42;;;;;;;24.50;14.57;;;;;;;2.18;100.00;102218.84;5049602;28;20052;-93
2024/01/13 10:22:16;;;;;;;28.60;15.93;;;;;;;2.19;100.00;102208.00;5053649;28;20276;-92
2024/01/13 10:35:58;;;;;;;26.60;14.97;;;;;;;2.22;100.00;102201.53;5029602;28;20037;-92
2024/01/13 10:45:02;;;;;;;29.70;14.30;;;;;;;2.20;100.00;102187.41;5017183;28;20124;-93
2024/01/13 10:47:35;;;;;;;27.85;15.20;;;;;;;2.18;100.00;102192.91;5014879;28;20037;-92
2024/01/13 10:57:05;;;;;;;27.17;15.50;;;;;;;2.19;100.00;102180.38;5012799;28;20036;-92
2024/01/13 11:03:02;;;;;;;25.75;13.50;;;;;;;2.28;100.00;102172.41;5036613;28;20033;-93
2024/01/13 11:05:49;;;;;;;30.90;16.50;;;;;;;2.32;100.00;102156.06;5047884;28;20484;-93
2024/01/13 11:08:17;;;;;;;30.00;15.80;;;;;;;2.30;100.00;102158.88;5053103;28;20354;-92
2024/01/13 11:13:47;;;;;;;31.55;15.27;;;;;;;2.34;100.00;102156.81;5054212;28;20546;-92
2024/01/13 11:17:02;;;;;;;30.55;15.70;;;;;;;2.40;100.00;102159.81;5053732;28;20516;-95
2024/01/13 11:19:35;;;;;;;26.50;15.67;;;;;;;2.40;100.00;102154.47;5052712;28;20091;-92
2024/01/13 11:22:21;;;;;;;24.60;14.45;;;;;;;2.43;100.00;102148.00;5052713;28;20279;-92
2024/01/13 11:24:50;;;;;;;26.30;15.23;;;;;;;2.44;100.00;102144.34;5052781;28;20029;-92
2024/01/13 11:27:22;;;;;;;26.80;15.43;;;;;;;2.43;100.00;102148.84;5051767;28;20095;-92
2024/01/13 11:29:50;;;;;;;28.40;15.30;;;;;;;2.42;100.00;102138.25;5053161;28;20173;-93
2024/01/13 11:32:17;;;;;;;26.25;14.55;;;;;;;2.42;100.00;102138.25;5052482;28;20065;-92
2024/01/13 11:34:45;;;;;;;28.20;14.27;;;;;;;2.43;100.00;102130.09;5067754;28;20435;-92
2024/01/13 11:37:21;;;;;;;25.38;13.77;;;;;;;2.46;100.00;102139.69;5076402;28;20029;-93
2024/01/13 11:39:57;;;;;;;24.77;14.30;;;;;;;2.45;100.00;102143.34;5077383;28;20033;-92
2024/01/13 11:42:30;;;;;;;22.05;11.77;;;;;;;2.45;100.00;102148.69;5076260;28;20032;-93
2024/01/13 11:45:02;;;;;;;25.17;13.40;;;;;;;2.44;100.00;102137.16;5077020;28;20033;-92
2024/01/13 11:47:35;;;;;;;24.65;12.80;;;;;;;2.45;100.00;102138.84;5077031;28;20132;-92
2024/01/13 11:50:01;;;;;;;26.10;13.88;;;;;;;2.43;100.00;102124.72;5044381;28;20064;-93
2024/01/13 11:52:35;;;;;;;24.73;13.27;;;;;;;2.43;100.00;102123.88;5076346;28;20033;-92
2024/01/13 11:55:26;;;;;;;24.50;13.33;;;;;;;2.45;100.00;102128.13;5077368;28;20020;-93
2024/01/13 11:57:51;;;;;;;24.15;13.93;;;;;;;2.48;100.00;102118.13;5077182;28;20314;-91
2024/01/13 12:00:17;;;;;;;23.17;13.52;;;;;;;2.47;100.00;102114.63;5059589;28;20032;-92
2024/01/13 12:02:45;;;;;;;23.33;12.63;;;;;;;2.50;100.00;102119.72;5075856;28;20055;-92
2024/01/13 12:05:33;;;;;;;26.80;13.15;;;;;;;2.54;100.00;102110.44;5076530;28;20085;-92
2024/01/13 12:12:08;;;;;;;23.38;12.60;;;;;;;2.54;100.00;102106.88;5015423;28;20040;-92
2024/01/13 12:17:49;;;;;;;23.20;12.95;;;;;;;2.58;100.00;102100.28;5066194;28;20040;-93
2024/01/13 12:20:27;;;;;;;;;;;;;;;;;;;;;
2024/01/13 12:23:12;;;;;;;20.77;11.82;;;;;;;2.62;100.00;102088.31;5077347;28;20032;-92
2024/01/13 12:25:38;;;;;;;21.30;11.82;;;;;;;2.62;100.00;102085.66;5075818;28;20035;-92
2024/01/13 12:28:29;;;;;;;23.03;12.83;;;;;;;2.59;100.00;102080.56;5075660;28;20020;-94
2024/01/13 12:30:57;;;;;;;23.80;12.77;;;;;;;2.58;100.00;102071.69;5062515;28;20514;-92
2024/01/13 12:33:35;;;;;;;16.80;9.57;;;;;;;2.61;100.00;102068.72;5076334;28;20056;-92
2024/01/13 12:36:16;;;;;;;26.55;12.80;;;;;;;2.65;100.00;102058.59;5060716;28;20032;-92
2024/01/13 12:38:42;;;;;;;22.07;11.27;;;;;;;2.61;100.00;102052.66;5076693;28;20051;-93
2024/01/13 12:44:10;;;;;;;21.55;11.65;;;;;;;2.67;100.00;102061.13;5080322;28;20021;-93
2024/01/13 12:46:45;;;;;;;24.35;12.38;;;;;;;2.68;100.00;102062.84;5065457;28;20028;-92
2024/01/13 12:49:37;;;;;;;22.00;12.53;;;;;;;2.73;100.00;102069.50;5080563;28;20036;-93
2024/01/13 12:52:10;;;;;;;22.52;11.65;;;;;;;2.72;100.00;102077.66;5053291;28;20052;-95
2024/01/13 12:54:39;;;;;;;21.52;12.10;;;;;;;2.72;100.00;102065.09;5079821;28;20025;-93
2024/01/13 12:57:16;;;;;;;21.83;11.30;;;;;;;2.75;100.00;102069.34;5096238;28;20100;-93
2024/01/13 12:59:57;;;;;;;25.67;11.90;;;;;;;2.77;100.00;102070.06;5063176;28;20210;-93
2024/01/13 13:02:32;;;;;;;23.50;13.13;;;;;;;2.78;100.00;102064.56;5096389;28;20067;-93
2024/01/13 13:05:12;;;;;;;18.73;11.02;;;;;;;2.78;100.00;102056.53;5068418;28;20575;-93
2024/01/13 13:07:37;;;;;;;20.73;12.02;;;;;;;2.79;100.00;102062.72;5062163;28;20039;-93
2024/01/13 13:10:15;;;;;;;20.90;11.65;;;;;;;2.79;100.00;102052.88;5079042;28;20103;-93
2024/01/13 13:12:59;;;;;;;;;;;;;;;;;;;;;
2024/01/13 13:15:35;;;;;;;21.05;11.55;;;;;;;2.76;100.00;102042.41;5086168;28;20112;-93
2024/01/13 13:18:04;;;;;;;24.52;12.95;;;;;;;2.76;100.00;102031.69;5085586;28;20487;-94
2024/01/13 13:20:34;;;;;;;24.80;13.38;;;;;;;2.79;100.00;102027.88;5073587;28;20025;-93
2024/01/13 13:23:08;;;;;;;25.60;12.70;;;;;;;2.79;100.00;102033.25;5074493;28;20094;-93
2024/01/13 13:25:43;;;;;;;24.02;12.65;;;;;;;2.81;100.00;102040.16;5075695;28;20294;-92
2024/01/13 13:28:13;;;;;;;21.23;11.43;;;;;;;2.79;100.00;102025.19;5074792;28;20040;-94
2024/01/13 13:30:43;;;;;;;26.33;13.85;;;;;;;2.79;100.00;102023.38;5074812;28;20067;-92
2024/01/13 13:33:33;;;;;;;25.27;13.05;;;;;;;2.78;100.00;102028.88;5075505;28;20036;-93
2024/01/13 13:36:14;;;;;;;21.95;11.45;;;;;;;2.77;100.00;102019.13;5077885;28;20372;-93
2024/01/13 13:38:58;;;;;;;25.90;13.65;;;;;;;2.78;100.00;102029.72;5046172;28;20063;-92
2024/01/13 13:41:33;;;;;;;;;;;;;;;;;;;;;
2024/01/13 13:44:08;;;;;;;29.55;14.73;;;;;;;2.73;100.00;102028.41;5096085;28;20448;-93
2024/01/13 13:46:36;;;;;;;25.50;14.00;;;;;;;2.73;100.00;102029.28;5077526;28;20028;-93
2024/01/13 13:49:09;;;;;;;21.50;12.27;;;;;;;2.72;100.00;102029.44;5077766;28;20067;-93